Weather observations for the past three days for
Sweetwater, Avenger Field Airport
Metric (Imperial)
Date Time (cdt) Wind (kph) Vis. (km) Weather Sky Cond. Temperature (ºC) Relative Humidity Wind Chill (°C) Heat Index (°C) Pressure Precipitation (cm)
Air Dwpt 6 hour altimeter (cm) sea level (mb) 1 hr 3 hr 6 hr
Max. Min.
10 07:15 NE 6 16.09 NULL NULL 23 14.8 60% 75.97 0.0
10 06:55 Calm 16.09 NULL NULL 23.5 15.3 26.5 23.5 60% 75.97 0.0
10 06:35 NE 11 16.09 NULL NULL 23.8 15.2 59% 75.97 0.0
10 06:15 SW 22 G 33 16.09 NULL NULL 23.9 15.5 59% 25 75.9 0.0
10 05:55 N 11 G 33 16.09 NULL NULL 23.6 15.5 61% 75.95 0.0
10 05:35 S 30 16.09 NULL NULL 23.7 15.5 60% 75.79 0.0
10 05:15 SW 28 G 39 16.09 NULL NULL 23.6 15.2 59% 75.79 0.0
10 04:55 S 31 G 37 16.09 NULL NULL 23.7 14.8 58% 75.77 0.0
10 04:35 S 30 G 41 16.09 NULL NULL 24.1 14.1 54% 25 75.77 0.0
10 04:15 S 30 G 39 16.09 NULL NULL 24.5 13.5 50% 26 75.77 0.0
10 03:55 S 31 G 43 16.09 NULL NULL 24.5 13.5 50% 26 75.77 0.0
10 03:35 S 31 G 39 16.09 NULL NULL 24.3 13.7 52% 26 75.74 0.0
10 03:15 S 26 G 37 16.09 NULL NULL 24.5 13.7 51% 26 75.74 0.0
10 02:55 S 26 G 33 16.09 NULL NULL 24.3 13.8 52% 26 75.74 0.0
10 02:35 S 26 G 35 16.09 NULL NULL 24.8 13.8 50% 26 75.74 0.0
10 02:15 S 31 G 41 16.09 NULL NULL 25.2 13.5 48% 26 75.74 0.0
10 01:55 S 30 G 39 16.09 NULL NULL 25.7 12.8 45% 26 75.74 0.0
10 01:35 S 28 G 41 16.09 NULL NULL 26.2 12.5 43% 26 75.74 0.0
10 01:15 S 30 G 41 16.09 NULL NULL 26.3 12.6 43% 26 75.77 0.0
10 00:55 S 31 G 41 16.09 NULL NULL 26.5 12.5 33.9 26.2 42% 27 75.74 0.0
10 00:35 S 28 16.09 NULL NULL 26.5 12.7 42% 27 75.77 0.0
10 00:15 S 28 G 37 16.09 NULL NULL 26.3 12.7 43% 27 75.77 0.0
09 23:55 S 26 G 39 16.09 NULL NULL 26.5 12.6 42% 27 75.77 0.0
09 23:35 S 30 G 41 16.09 NULL NULL 26.6 12.2 41% 27 75.77 0.0
09 23:15 S 31 G 44 16.09 NULL NULL 26.8 11.6 39% 27 75.77 0.0
09 22:55 S 31 G 41 16.09 NULL NULL 27 11 37% 27 75.77 0.0
09 22:35 S 31 G 41 16.09 NULL NULL 27.3 10.1 34% 27 75.77 0.0
09 22:15 S 33 16.09 Breezy NULL 27.5 10 33% 27 75.74 0.0
09 21:55 S 28 G 35 16.09 NULL NULL 27.9 9.3 31% 27 75.74 0.0
09 21:35 S 26 G 35 16.09 NULL NULL 28.1 9.1 30% 27 75.74 0.0
09 21:15 S 24 16.09 NULL NULL 28.5 9.2 30% 27 75.72 0.0
09 20:55 S 24 16.09 NULL NULL 29.1 8.9 28% 28 75.72 0.0
09 20:35 S 26 G 37 16.09 NULL NULL 30.1 8.3 26% 29 75.69 0.0
09 20:15 S 28 G 35 16.09 NULL NULL 31 7.6 23% 29 75.69 0.0
09 19:55 S 26 16.09 NULL NULL 31.7 7.6 22% 30 75.69 0.0
09 19:35 S 24 G 35 16.09 NULL NULL 32.5 7.5 21% 31 75.69 0.0
09 19:15 S 26 G 33 16.09 NULL NULL 33.5 7.4 20% 31 75.69 0.0
09 18:55 S 28 G 33 16.09 NULL NULL 34 7.9 35.5 32.2 20% 32 75.69 0.0
09 18:35 S 24 G 37 16.09 NULL NULL 34.5 7.6 19% 32 75.69 0.0
09 18:15 S 19 G 30 16.09 NULL NULL 34.5 8.4 20% 32 75.72 0.0
09 17:55 S 24 G 33 16.09 NULL NULL 34.8 8.2 19% 33 75.72 0.0
09 17:35 S 11 G 31 16.09 NULL NULL 34 7.1 19% 32 75.72 0.0
09 17:15 SW 20 G 30 16.09 NULL NULL 35.5 6.9 17% 33 75.74 0.0
09 16:55 SW 19 G 31 16.09 NULL NULL 35.3 7.1 17% 33 75.77 0.0
09 16:35 S 15 G 35 16.09 NULL NULL 35.1 7.7 18% 33 75.77 0.0
09 16:15 S 20 G 26 16.09 NULL NULL 35.3 6.4 17% 33 75.79 0.0
09 15:55 SE 9 G 26 16.09 NULL NULL 35.5 6.5 17% 33 75.79 0.0
09 15:35 SE 9 16.09 NULL NULL 35 6.7 17% 33 75.82 0.0
09 15:15 S 19 G 26 16.09 NULL NULL 34.8 6.9 18% 33 75.87 0.0
09 14:55 S 20 16.09 NULL NULL 34.2 8 20% 32 75.87 0.0
09 14:35 S 9 G 19 16.09 NULL NULL 34.6 8.5 20% 33 75.9 0.0
09 14:15 S 22 G 30 16.09 NULL NULL 34 9.9 23% 32 75.9 0.0
09 13:55 SW 15 G 26 16.09 NULL NULL 33.5 10.1 24% 32 75.92 0.0
09 13:35 SW 19 G 31 16.09 NULL NULL 33.1 11.6 27% 32 75.95 0.0
09 13:15 S 19 G 35 16.09 NULL NULL 32.5 11.1 27% 31 75.97 0.0
09 12:55 S 20 G 37 16.09 NULL NULL 32.1 11.5 32.1 18.5 28% 31 75.97 0.0
09 12:35 SE 19 G 28 16.09 NULL NULL 31.7 11.4 29% 30 76 0.0
09 12:15 SW 19 G 30 16.09 NULL NULL 31.2 11.5 30% 30 76.02 0.0
09 11:55 SW 17 G 28 16.09 NULL NULL 30.4 12.1 32% 29 76.02 0.0
09 11:35 SW 19 G 30 16.09 NULL NULL 29.7 13.8 38% 29 76.02 0.0
09 11:15 SW 20 16.09 NULL NULL 28.6 14.9 43% 28 76.05 0.0
09 10:55 SW 20 16.09 NULL NULL 27.5 15.3 47% 28 76.05 0.0
09 10:35 S 20 16.09 NULL NULL 26.5 16.2 53% 27 76.07 0.0
09 10:15 SW 20 16.09 NULL NULL 25.8 16.3 56% 27 76.07 0.0
09 09:55 SW 20 16.09 NULL NULL 25.2 16.9 60% 26 76.07 0.0
09 09:35 SW 20 16.09 NULL NULL 24.3 17.5 66% 25 76.07 0.0
09 09:15 SW 22 16.09 NULL NULL 23.5 17.6 70% 76.07 0.0
09 08:55 S 22 16.09 NULL NULL 22.4 18 76% 76.1 0.0
09 08:35 S 17 16.09 NULL NULL 21.5 18.9 85% 76.1 0.0
09 08:15 SW 15 16.09 NULL NULL 20.6 18.9 90% 76.07 0.0
09 07:55 SW 13 11.27 NULL NULL 19.7 18.4 92% 76.07 0.0
09 07:35 S 13 11.27 NULL NULL 18.5 17.3 93% 76.05 0.0
09 07:15 S 17 11.27 NULL NULL 18.5 17.2 92% 76.02 0.0
09 06:55 S 13 11.27 NULL NULL 18.8 17.3 21.5 17.8 91% 76 0.0
09 06:35 S 15 11.27 NULL NULL 19.1 17.6 91% 76 0.0
09 06:15 S 20 16.09 NULL NULL 19.5 18 91% 75.95 0.0
09 05:55 S 22 16.09 NULL NULL 19.7 18.2 91% 75.95 0.0
09 05:35 S 20 11.27 NULL NULL 19.6 18.1 91% 75.95 0.0
09 05:15 S 20 G 30 11.27 NULL NULL 19 17.5 91% 75.95 0.0
09 04:55 S 13 11.27 NULL NULL 18.3 16.4 89% 75.95 0.0
09 04:35 S 15 16.09 NULL NULL 18 15.1 83% 75.95 0.0
09 04:15 SE 11 16.09 NULL NULL 18 14.7 81% 75.95 0.0
09 03:55 S 9 16.09 NULL NULL 18.3 14.9 81% 75.95 0.0
09 03:35 SE 11 16.09 NULL NULL 18.6 14.9 79% 75.97 0.0
09 03:15 SE 9 16.09 NULL NULL 19 15.5 80% 76 0.0
09 02:55 E 13 16.09 NULL NULL 19 15.4 80% 76 0.0
09 02:35 E 28 16.09 NULL NULL 19 14.5 75% 76 0.0
09 02:15 S 13 16.09 NULL NULL 19.6 15 75% 75.92 0.0
09 01:55 S 13 16.09 NULL NULL 20 14.7 72% 75.92 0.0
09 01:35 S 9 16.09 NULL NULL 20.8 15.1 70% 75.95 0.0
09 01:15 SW 11 16.09 NULL NULL 21 15 69% 75.92 0.0
09 00:55 SW 9 16.09 NULL NULL 21.5 15.5 29.6 21.5 69% 75.95 0.0
09 00:35 SW 9 16.09 NULL NULL 21.8 15.2 66% 75.97 0.0
09 00:15 SW 13 16.09 NULL NULL 22.3 15.6 66% 75.97 0.0
08 23:55 NW 24 G 30 16.09 NULL NULL 22.2 15.6 66% 76 0.0
08 23:35 S 22 16.09 NULL NULL 22.5 15.5 65% 75.9 0.0
08 23:15 S 24 16.09 NULL NULL 22.5 15.5 65% 75.87 0.0
08 22:55 S 20 16.09 NULL NULL 22.6 15.6 65% 75.84 0.0
08 22:35 S 24 16.09 NULL NULL 22.6 15.7 65% 75.82 0.0
08 22:15 S 20 16.09 NULL NULL 22.7 15.6 64% 75.82 0.0
08 21:55 S 19 16.09 NULL NULL 23 15.6 63% 75.79 0.0
08 21:35 S 20 16.09 NULL NULL 23.2 15.6 62% 75.79 0.0
08 21:15 S 19 16.09 NULL NULL 23.7 15.5 60% 75.77 0.0
08 20:55 S 20 16.09 NULL NULL 24.5 15.2 56% 26 75.74 0.0
08 20:35 S 19 16.09 NULL NULL 25.2 14.7 52% 26 75.74 0.0
08 20:15 S 19 16.09 NULL NULL 26.1 14.5 49% 27 75.74 0.0
08 19:55 S 19 16.09 NULL NULL 27.1 14.2 45% 27 75.72 0.0
08 19:35 S 20 16.09 NULL NULL 28 14.2 43% 28 75.72 0.0
08 19:15 S 17 16.09 NULL NULL 29 13.8 39% 29 75.72 0.0
08 18:55 S 20 16.09 NULL NULL 29.7 13.8 31.3 26.8 38% 29 75.69 0.0
08 18:35 SE 7 16.09 NULL NULL 30.6 13.6 35% 30 75.69 0.0
08 18:15 Calm 16.09 NULL NULL 31 12.9 33% 30 75.69 0.0
08 17:55 Calm 16.09 NULL NULL 31.2 13 33% 30 75.69 0.0
08 17:35 S 7 16.09 NULL NULL 30.9 13.1 34% 30 75.69 0.0
08 17:15 S 11 16.09 NULL NULL 30.6 14 36% 30 75.69 0.0
08 16:55 S 9 16.09 NULL NULL 30.3 14.1 37% 30 75.72 0.0
08 16:35 S 7 16.09 NULL NULL 30 14.3 38% 30 75.72 0.0
08 16:15 SW 13 16.09 NULL NULL 30 14.1 38% 29 75.74 0.0
08 15:55 S 13 16.09 NULL NULL 29.9 14.3 39% 29 75.79 0.0
08 15:35 S 9 G 31 16.09 NULL NULL 29.5 14.6 40% 29 75.82 0.0
08 15:15 SW 9 G 26 16.09 NULL NULL 29 14.7 42% 29 75.84 0.0
08 14:55 S 17 G 26 16.09 NULL NULL 28.6 14.7 43% 28 75.84 0.0
08 14:35 SW 22 G 30 16.09 NULL NULL 28.5 15.1 44% 28 75.87 0.0
08 14:15 SW 22 G 31 16.09 NULL NULL 28.1 15.3 46% 28 75.87 0.0
08 13:55 SW 22 G 30 16.09 NULL NULL 28.6 15 44% 29 75.9 0.0
08 13:35 SW 22 G 33 16.09 NULL NULL 28.1 15.5 46% 28 75.92 0.0
08 13:15 W 22 16.09 NULL NULL 27.5 15.5 48% 28 75.95 0.0
08 12:55 SW 13 16.09 NULL NULL 26.6 15.7 26.6 16.5 51% 27 75.97 0.0
08 12:35 S 9 G 15 16.09 NULL NULL 25.8 15.4 53% 27 76 0.0
08 12:15 SW 15 G 26 16.09 NULL NULL 25.2 15 53% 26 76.05 0.0
08 11:55 SW 11 16.09 NULL NULL 25 15.2 55% 26 76.07 0.0
08 11:35 SW 17 16.09 NULL NULL 24 14.8 57% 25 76.1 0.0
08 11:15 S 11 16.09 NULL NULL 23.1 15 60% 76.12 0.0
08 10:55 SW 9 16.09 NULL NULL 21.8 14.6 64% 76.12 0.0
08 10:35 SW 7 16.09 NULL NULL 20.9 14.6 67% 76.12 0.0
08 10:15 SW 17 16.09 NULL NULL 20.3 14.6 70% 76.15 0.0
08 09:55 S 11 16.09 NULL NULL 19 14.2 74% 76.15 0.0
08 09:35 S 9 16.09 NULL NULL 18.4 14 76% 76.15 0.0
08 09:15 S 9 16.09 NULL NULL 17.7 13.8 78% 76.15 0.0
08 08:55 S 13 16.09 NULL NULL 17 13.2 78% 76.15 0.0
08 08:35 S 17 16.09 NULL NULL 16.6 12.9 79% 76.17 0.0
08 08:15 S 13 16.09 NULL NULL 16.5 12.5 77% 76.17 0.0
08 07:55 S 13 16.09 NULL NULL 16.7 12.2 75% 76.15 0.0
08 07:35 S 7 16.09 NULL NULL 16.8 11.4 71% 76.15 0.0
08 07:15 S 7 16.09 NULL NULL 16.8 11.3 70% 76.15 0.0
08 06:55 S 7 16.09 NULL NULL 16.5 11 16.5 13.8 70% 76.15 0.0
08 06:35 S 11 16.09 NULL NULL 16.2 10.5 69% 76.15 0.0
08 06:15 S 11 16.09 NULL NULL 16 10.4 70% 76.12 0.0
08 05:55 S 9 16.09 NULL NULL 15.6 9.9 69% 76.12 0.0
08 05:35 SE 6 16.09 NULL NULL 16 10.2 69% 76.12 0.0
08 05:15 SE 11 16.09 NULL NULL 16 10.4 70% 76.12 0.0
08 04:55 SE 7 16.09 NULL NULL 16 10.3 69% 76.15 0.0
08 04:35 SE 9 16.09 NULL NULL 15.7 10.2 70% 76.15 0.0
08 04:15 SE 7 16.09 NULL NULL 15.8 10.5 71% 76.17 0.0
08 03:55 S 7 16.09 NULL NULL 15.9 10.9 72% 76.17 0.0
08 03:35 S 7 16.09 NULL NULL 16 11.4 74% 76.17 0.0
08 03:15 Calm 16.09 NULL NULL 15.7 11.1 74% 76.17 0.0
08 02:55 Calm 16.09 NULL NULL 15.3 10.8 75% 76.2 0.0
08 02:35 Calm 16.09 NULL NULL 14.6 10.5 77% 76.2 0.0
08 02:15 Calm 16.09 NULL NULL 13.8 9.8 77% 76.23 0.0
08 01:55 NW 6 16.09 NULL NULL 14.1 10 77% 76.23 0.0
08 01:35 Calm 16.09 NULL NULL 14 9.3 74% 76.25 0.0
08 01:15 S 6 16.09 NULL NULL 14.2 9.6 74% 76.23 0.0
08 00:55 Calm 16.09 NULL NULL 14.5 9.7 21.5 14.5 73% 76.23 0.0
08 00:40 Calm 16.09 NULL NULL 14.8 10.2 74% 76.23 0.0
08 00:15 S 15 16.09 NULL NULL 15.3 10.6 74% 76.23 0.0
07 23:55 S 19 16.09 NULL NULL 15.8 10.5 71% 76.23 0.0
07 23:35 S 17 16.09 NULL NULL 16.1 10.7 71% 76.28 0.0
07 23:15 S 19 16.09 NULL NULL 16.2 10.5 69% 76.3 0.0
07 22:55 S 22 16.09 NULL NULL 16.2 9.8 66% 76.28 0.0
07 22:35 S 19 16.09 NULL NULL 16 8.7 62% 76.28 0.0
07 22:15 S 13 16.09 NULL NULL 16.2 8.5 61% 76.25 0.0
07 21:55 S 17 16.09 NULL NULL 17 8.5 58% 76.25 0.0
07 21:35 S 17 16.09 NULL NULL 17.5 8.4 55% 76.23 0.0
07 21:15 S 22 G 30 16.09 NULL NULL 18 8.2 53% 76.23 0.0
07 20:55 S 20 16.09 NULL NULL 18.5 8.2 51% 76.2 0.0
07 20:35 S 19 16.09 NULL NULL 19.1 8 49% 76.17 0.0
07 20:15 SE 20 16.09 NULL NULL 19.7 8.1 47% 76.17 0.0
07 19:55 SE 19 16.09 NULL NULL 20.5 8 45% 76.15 0.0
07 19:35 S 22 16.09 NULL NULL 20.5 8.1 45% 76.17 0.0
07 19:15 S 26 16.09 NULL NULL 21.2 8.5 44% 76.2 0.0
07 18:55 S 24 16.09 NULL NULL 21.5 8.3 28 21.1 43% 76.2 0.0
07 18:35 SE 24 16.09 NULL NULL 22.7 8 39% 76.17 0.0
07 18:15 S 26 G 31 16.09 NULL NULL 23.5 7.5 36% 76.2 0.0
07 17:55 S 22 G 28 16.09 NULL NULL 24.6 6 30% 25 76.2 0.0
07 17:35 SE 19 16.09 NULL NULL 25.5 5.9 28% 26 76.23 0.0
07 17:15 S 22 16.09 NULL NULL 26.4 5.2 26% 26 76.2 0.0
07 16:55 SE 13 16.09 NULL NULL 27 4.2 23% 26 76.23 0.0
07 16:35 Calm 16.09 NULL NULL 27.5 4.1 22% 26 76.25 0.0
07 16:15 SE 9 16.09 NULL NULL 27.2 4.6 24% 26 76.28 0.0
07 15:55 E 15 16.09 NULL NULL 26.8 5.1 25% 26 76.3 0.0
07 15:35 E 15 16.09 NULL NULL 26.2 5.1 26% 26 76.33 0.0
07 15:15 SE 11 16.09 NULL NULL 25.7 5.7 28% 26 76.35 0.0
07 14:55 NE 11 16.09 NULL NULL 25.2 5.1 27% 25 76.35 0.0
07 14:35 E 13 16.09 NULL NULL 24.7 5.4 29% 25 76.38 0.0
07 14:15 E 13 16.09 NULL NULL 24 5.5 30% 25 76.4 0.0
07 13:55 E 6 16.09 NULL NULL 23.3 5.3 31% 76.43 0.0
07 13:35 E 11 G 26 16.09 NULL NULL 22.5 5 32% 76.45 0.0
07 13:15 E 20 G 28 16.09 NULL NULL 21.9 5.2 34% 76.48 0.0
07 12:55 NE 17 16.09 NULL NULL 21 5.5 21 8.5 36% 76.48 0.0
07 12:35 E 17 16.09 NULL NULL 20.4 5.5 38% 76.5 0.0
07 12:15 E 24 16.09 NULL NULL 19.5 5.7 41% 76.56 0.0
07 11:55 E 20 16.09 NULL NULL 18.7 5.5 42% 76.56 0.0
07 11:35 NE 13 16.09 NULL NULL 18.2 6.2 46% 76.61 0.0
07 11:15 E 17 G 28 16.09 NULL NULL 17.5 6.7 49% 76.61 0.0
07 10:55 E 17 16.09 NULL NULL 16.5 6.6 52% 76.63 0.0
07 10:35 E 11 16.09 NULL NULL 15.4 7.1 58% 76.63 0.0
07 10:15 E 19 16.09 NULL NULL 14.5 6.8 60% 76.63 0.0
07 09:55 E 17 16.09 NULL NULL 14 7.6 66% 76.63 0.0
07 09:35 E 20 16.09 NULL NULL 13.3 7.8 70% 76.63 0.0
07 09:15 E 11 16.09 NULL NULL 12.2 9.1 82% 76.66 0.0
07 08:55 E 15 16.09 NULL NULL 11.4 9.4 88% 76.63 0.0
07 08:35 NE 13 16.09 NULL NULL 11 9 88% 76.63 0.0
07 08:15 NE 7 16.09 NULL NULL 9.7 7.7 87% 9 76.61 0.0
07 07:55 NE 9 16.09 NULL NULL 9 7 87% 8 76.63 0.0
Date Time (cdt) Wind (kph) Vis. (km) Weather Sky Cond. Air Dwpt Max. Min. Relative Humidity Wind Chill (°C) Heat Index (°C) altimeter (cm) sea level (mb) 1 hr 3 hr 6 hr
6 hour
Temperature (ºC) Pressure Precipitation (cm)